Time;durP1;ratioP1;P1;durP2;ratioP2;P2;SDS_P1;SDS_P2;PMS_P1;PMS_P2;Temp;Humidity;BMP_temperature;BMP_pressure;BME280_temperature;BME280_humidity;BME280_pressure;Samples;Min_cycle;Max_cycle;Signal;HPM_P1;HPM_P2
2024/01/01 00:01:07;;;;;;;;;;;7.70;99.90;;;;;;5049343;28;20036;-75
2024/01/01 00:03:32;;;;;;;;;;;7.70;99.90;;;;;;5048934;28;20380;-74
2024/01/01 00:05:58;;;;;;;;;;;7.70;99.90;;;;;;5069643;28;19920;-77
2024/01/01 00:08:24;;;;;;;;;;;7.70;99.90;;;;;;5050134;28;19958;-77
2024/01/01 00:10:50;;;;;;;;;;;7.70;99.90;;;;;;5050798;28;19925;-77
2024/01/01 00:13:15;;;;;;;;;;;7.70;99.90;;;;;;5042880;28;19975;-77
2024/01/01 00:15:41;;;;;;;;;;;7.70;99.90;;;;;;5044118;28;19974;-77
2024/01/01 00:18:06;;;;;;;;;;;7.70;99.90;;;;;;5050833;28;19927;-77
2024/01/01 00:20:32;;;;;;;;;;;7.70;99.90;;;;;;5041094;28;19928;-77
2024/01/01 00:22:57;;;;;;;;;;;7.70;99.90;;;;;;5037894;28;19920;-77
2024/01/01 00:25:23;;;;;;;;;;;7.70;99.90;;;;;;5049937;28;19966;-75
2024/01/01 00:27:48;;;;;;;;;;;7.70;99.90;;;;;;5050810;28;19924;-76
2024/01/01 00:30:14;;;;;;;;;;;7.60;99.90;;;;;;5050969;28;20330;-77
2024/01/01 00:32:39;;;;;;;;;;;7.60;99.90;;;;;;5049078;28;19929;-77
2024/01/01 00:35:05;;;;;;;;;;;7.60;99.90;;;;;;5050959;28;19974;-76
2024/01/01 00:37:31;;;;;;;;;;;7.60;99.90;;;;;;5051766;28;19947;-75
2024/01/01 00:39:56;;;;;;;;;;;7.70;99.90;;;;;;5049383;28;19920;-75
2024/01/01 00:42:22;;;;;;;;;;;7.60;99.90;;;;;;5050688;28;19920;-75
2024/01/01 00:44:47;;;;;;;;;;;7.70;99.90;;;;;;5050024;28;19982;-75
2024/01/01 00:47:13;;;;;;;;;;;7.70;99.90;;;;;;5050395;28;19920;-75
2024/01/01 00:49:39;;;;;;;;;;;7.70;99.90;;;;;;5047615;28;19925;-75
2024/01/01 00:52:05;;;;;;;;;;;7.70;99.90;;;;;;5046803;28;19924;-75
2024/01/01 00:54:30;;;;;;;;;;;7.70;99.90;;;;;;5046473;28;19924;-75
2024/01/01 00:56:57;;;;;;;;;;;7.70;99.90;;;;;;5050725;28;19921;-76
2024/01/01 00:59:22;;;;;;;;;;;7.60;99.90;;;;;;5035108;28;19921;-75
2024/01/01 01:01:48;;;;;;;;;;;7.70;99.90;;;;;;5049524;28;19927;-75
2024/01/01 01:04:14;;;;;;;;;;;7.70;99.90;;;;;;5043545;28;20412;-75
2024/01/01 01:06:39;;;;;;;;;;;7.70;99.90;;;;;;5037644;28;20011;-75
2024/01/01 01:09:05;;;;;;;;;;;7.70;99.90;;;;;;5041855;28;20033;-75
2024/01/01 01:11:31;;;;;;;;;;;7.70;99.90;;;;;;5048940;28;20525;-75
2024/01/01 01:13:57;;;;;;;;;;;7.70;99.90;;;;;;5048742;28;19921;-75
2024/01/01 01:16:23;;;;;;;;;;;7.70;99.90;;;;;;5050786;28;20268;-77
2024/01/01 01:18:48;;;;;;;;;;;7.70;99.90;;;;;;5042991;28;19979;-75
2024/01/01 01:21:14;;;;;;;;;;;7.70;99.90;;;;;;5046184;28;19982;-75
2024/01/01 01:23:42;;;;;;;;;;;7.60;99.90;;;;;;5044438;28;19935;-75
2024/01/01 01:26:07;;;;;;;;;;;7.60;99.90;;;;;;5051027;28;20047;-75
2024/01/01 01:28:33;;;;;;;;;;;7.60;99.90;;;;;;5049950;28;20078;-74
2024/01/01 01:31:00;;;;;;;;;;;7.60;99.90;;;;;;5050881;28;20431;-75
2024/01/01 01:33:26;;;;;;;;;;;7.60;99.90;;;;;;5049926;28;20290;-76
2024/01/01 01:35:51;;;;;;;;;;;7.60;99.90;;;;;;5044492;28;20327;-75
2024/01/01 01:38:17;;;;;;;;;;;7.60;99.90;;;;;;5045605;28;20320;-75
2024/01/01 01:40:43;;;;;;;;;;;7.60;99.90;;;;;;5067340;28;19928;-75
2024/01/01 01:43:23;;;;;;;;;;;7.60;99.90;;;;;;5044374;28;20349;-75
2024/01/01 01:45:49;;;;;;;;;;;7.60;99.90;;;;;;5045171;28;20019;-75
2024/01/01 01:48:16;;;;;;;;;;;7.60;99.90;;;;;;5036232;28;20473;-75
2024/01/01 01:50:43;;;;;;;;;;;7.60;99.90;;;;;;5053773;28;19916;-75
2024/01/01 01:53:09;;;;;;;;;;;7.60;99.90;;;;;;5052488;28;19931;-75
2024/01/01 01:55:34;;;;;;;;;;;7.60;99.90;;;;;;5075287;28;20363;-75
2024/01/01 01:58:00;;;;;;;;;;;7.70;99.90;;;;;;5049539;28;19920;-75
2024/01/01 02:00:25;;;;;;;;;;;7.70;99.90;;;;;;5053976;28;19924;-75
2024/01/01 02:02:52;;;;;;;;;;;7.60;99.90;;;;;;5052474;28;20002;-76
2024/01/01 02:05:18;;;;;;;;;;;7.70;99.90;;;;;;5068464;28;19943;-76
2024/01/01 02:07:45;;;;;;;;;;;7.70;99.90;;;;;;5062747;28;19920;-75
2024/01/01 02:10:11;;;;;;;;;;;7.70;99.90;;;;;;5052195;28;19921;-75
2024/01/01 02:12:37;;;;;;;;;;;7.70;99.90;;;;;;5053213;28;19920;-74
2024/01/01 02:15:02;;;;;;;;;;;7.70;99.90;;;;;;5051544;28;20429;-75
2024/01/01 02:17:28;;;;;;;;;;;7.70;99.90;;;;;;5053519;28;19927;-76
2024/01/01 02:19:53;;;;;;;;;;;7.80;99.90;;;;;;5053379;28;19921;-75
2024/01/01 02:22:19;;;;;;;;;;;7.70;99.90;;;;;;5052418;28;20011;-75
2024/01/01 02:24:45;;;;;;;;;;;7.70;99.90;;;;;;5070959;28;20010;-74
2024/01/01 02:27:10;;;;;;;;;;;7.70;99.90;;;;;;5051339;28;19956;-75
2024/01/01 02:29:36;;;;;;;;;;;7.80;99.90;;;;;;5052705;28;19920;-76
2024/01/01 02:32:02;;;;;;;;;;;7.80;99.90;;;;;;5052764;28;19926;-75
2024/01/01 02:34:28;;;;;;;;;;;7.80;99.90;;;;;;5077855;28;19924;-75
2024/01/01 02:36:55;;;;;;;;;;;7.80;99.90;;;;;;5054152;28;20395;-77
2024/01/01 02:39:20;;;;;;;;;;;7.80;99.90;;;;;;5051034;28;19924;-78
2024/01/01 02:41:46;;;;;;;;;;;7.80;99.90;;;;;;5069327;28;19927;-77
2024/01/01 02:44:11;;;;;;;;;;;7.80;99.90;;;;;;5051943;28;19920;-77
2024/01/01 02:46:37;;;;;;;;;;;7.80;99.90;;;;;;5052128;28;19973;-74
2024/01/01 02:49:02;;;;;;;;;;;7.80;99.90;;;;;;5052851;28;20442;-73
2024/01/01 02:51:28;;;;;;;;;;;7.80;99.90;;;;;;5041363;28;19921;-75
2024/01/01 02:53:53;;;;;;;;;;;7.80;99.90;;;;;;5038519;28;19928;-75
2024/01/01 02:56:20;;;;;;;;;;;7.80;99.90;;;;;;5047016;28;19993;-76
2024/01/01 02:58:46;;;;;;;;;;;7.80;99.90;;;;;;5047541;28;19931;-75
2024/01/01 03:01:11;;;;;;;;;;;7.80;99.90;;;;;;5050354;28;19924;-75
2024/01/01 03:03:37;;;;;;;;;;;7.70;99.90;;;;;;5053349;28;19981;-75
2024/01/01 03:06:03;;;;;;;;;;;7.70;99.90;;;;;;5047734;28;19928;-75
2024/01/01 03:08:29;;;;;;;;;;;7.70;99.90;;;;;;5052643;28;20330;-75
2024/01/01 03:10:55;;;;;;;;;;;7.60;99.90;;;;;;5073573;28;19921;-74
2024/01/01 03:13:20;;;;;;;;;;;7.70;99.90;;;;;;5046294;28;19920;-74
2024/01/01 03:15:46;;;;;;;;;;;7.60;99.90;;;;;;5051447;28;19920;-74
2024/01/01 03:18:12;;;;;;;;;;;7.70;99.90;;;;;;5068720;28;20386;-75
2024/01/01 03:20:38;;;;;;;;;;;7.50;99.90;;;;;;5043845;28;19920;-77
2024/01/01 03:23:04;;;;;;;;;;;7.50;99.90;;;;;;5050778;28;19927;-77
2024/01/01 03:25:30;;;;;;;;;;;7.50;99.90;;;;;;5052965;28;19928;-76
2024/01/01 03:27:55;;;;;;;;;;;7.40;99.90;;;;;;5068006;28;19975;-77
2024/01/01 03:30:21;;;;;;;;;;;7.30;99.90;;;;;;5042817;28;19928;-77
2024/01/01 03:32:47;;;;;;;;;;;7.40;99.90;;;;;;5053828;28;19946;-77
2024/01/01 03:35:13;;;;;;;;;;;7.30;99.90;;;;;;5068140;28;19948;-75
2024/01/01 03:37:39;;;;;;;;;;;7.30;99.90;;;;;;5053821;28;20034;-77
2024/01/01 03:40:06;;;;;;;;;;;7.40;99.90;;;;;;5050685;28;19924;-75
2024/01/01 03:42:31;;;;;;;;;;;7.30;99.90;;;;;;5072778;28;20394;-74
2024/01/01 03:44:57;;;;;;;;;;;7.20;99.90;;;;;;5049145;28;19921;-75
2024/01/01 03:47:23;;;;;;;;;;;7.20;99.90;;;;;;5079661;28;20019;-77
2024/01/01 03:49:48;;;;;;;;;;;7.20;99.90;;;;;;5051529;28;19920;-77
2024/01/01 03:52:14;;;;;;;;;;;7.20;99.90;;;;;;5052108;28;19920;-76
2024/01/01 03:54:39;;;;;;;;;;;7.20;99.90;;;;;;5043894;28;19924;-77
2024/01/01 03:57:05;;;;;;;;;;;7.20;99.90;;;;;;5049654;28;19916;-77
2024/01/01 03:59:30;;;;;;;;;;;7.20;99.90;;;;;;5050570;28;19920;-76
2024/01/01 04:01:56;;;;;;;;;;;7.20;99.90;;;;;;5046679;28;19989;-76
2024/01/01 04:04:21;;;;;;;;;;;7.20;99.90;;;;;;5051717;28;19921;-76
2024/01/01 04:06:47;;;;;;;;;;;7.10;99.90;;;;;;5049696;28;19925;-77
2024/01/01 04:09:12;;;;;;;;;;;7.20;99.90;;;;;;5051110;28;19928;-77
2024/01/01 04:11:38;;;;;;;;;;;7.20;99.90;;;;;;5069159;28;19931;-76
2024/01/01 04:14:04;;;;;;;;;;;7.10;99.90;;;;;;5067294;28;19928;-76
2024/01/01 04:16:29;;;;;;;;;;;7.10;99.90;;;;;;5050717;28;20148;-76
2024/01/01 04:18:55;;;;;;;;;;;7.10;99.90;;;;;;5051781;28;19924;-76
2024/01/01 04:21:20;;;;;;;;;;;7.10;99.90;;;;;;5051417;28;19920;-76
2024/01/01 04:23:47;;;;;;;;;;;7.10;99.90;;;;;;5051324;28;19917;-77
2024/01/01 04:26:14;;;;;;;;;;;7.10;99.90;;;;;;5050877;28;20003;-77
2024/01/01 04:28:39;;;;;;;;;;;7.10;99.90;;;;;;5046132;28;20212;-76
2024/01/01 04:31:05;;;;;;;;;;;7.10;99.90;;;;;;5050656;28;19927;-76
2024/01/01 04:33:30;;;;;;;;;;;7.10;99.90;;;;;;5050529;28;19920;-78
2024/01/01 04:35:56;;;;;;;;;;;7.10;99.90;;;;;;5050988;28;19924;-77
2024/01/01 04:38:21;;;;;;;;;;;8.30;99.90;;;;;;5032362;28;19921;-77
2024/01/01 04:40:47;;;;;;;;;;;6.30;99.90;;;;;;5047747;28;19920;-76
2024/01/01 04:43:13;;;;;;;;;;;7.10;99.90;;;;;;5048739;28;19999;-76
2024/01/01 04:45:38;;;;;;;;;;;7.00;99.90;;;;;;5049920;28;19927;-77
2024/01/01 04:48:04;;;;;;;;;;;7.00;99.90;;;;;;5049960;28;19920;-76
2024/01/01 04:50:31;;;;;;;;;;;7.00;99.90;;;;;;5049652;28;20356;-77
2024/01/01 04:52:56;;;;;;;;;;;7.00;99.90;;;;;;5050223;28;20019;-76
2024/01/01 04:55:22;;;;;;;;;;;7.10;99.90;;;;;;5050548;28;19998;-77
2024/01/01 04:57:47;;;;;;;;;;;7.00;99.90;;;;;;5048269;28;20265;-77
2024/01/01 05:00:14;;;;;;;;;;;6.90;99.90;;;;;;5042201;28;20288;-78
2024/01/01 05:02:39;;;;;;;;;;;7.00;99.90;;;;;;5048187;28;20406;-76
2024/01/01 05:05:08;;;;;;;;;;;7.00;99.90;;;;;;5047748;28;19991;-76
2024/01/01 05:07:34;;;;;;;;;;;7.00;99.90;;;;;;5046711;28;19920;-77
2024/01/01 05:10:00;;;;;;;;;;;7.00;99.90;;;;;;5047616;28;20353;-76
2024/01/01 05:12:25;;;;;;;;;;;7.00;99.90;;;;;;5050300;28;19920;-77
2024/01/01 05:14:51;;;;;;;;;;;6.90;99.90;;;;;;5048272;28;19924;-77
2024/01/01 05:17:16;;;;;;;;;;;7.10;99.90;;;;;;5050884;28;19927;-77
2024/01/01 05:19:42;;;;;;;;;;;6.90;99.90;;;;;;5044205;28;19928;-77
2024/01/01 05:22:07;;;;;;;;;;;7.20;99.90;;;;;;5049868;28;20038;-76
2024/01/01 05:24:35;;;;;;;;;;;6.90;99.90;;;;;;5044643;28;19974;-76
2024/01/01 05:27:01;;;;;;;;;;;7.00;99.90;;;;;;5048767;28;19942;-76
2024/01/01 05:29:26;;;;;;;;;;;7.00;99.90;;;;;;5049592;28;20367;-76
2024/01/01 05:31:54;;;;;;;;;;;7.00;99.90;;;;;;5045747;28;19920;-76
2024/01/01 05:34:19;;;;;;;;;;;7.00;99.90;;;;;;5049168;28;19924;-76
2024/01/01 05:36:45;;;;;;;;;;;7.00;99.90;;;;;;5049131;28;19927;-76
2024/01/01 05:39:10;;;;;;;;;;;7.00;99.90;;;;;;5036712;28;20359;-77
2024/01/01 05:41:36;;;;;;;;;;;6.90;99.90;;;;;;5048874;28;19924;-77
2024/01/01 05:44:01;;;;;;;;;;;6.90;99.90;;;;;;5048912;28;19927;-77
2024/01/01 05:46:27;;;;;;;;;;;7.00;99.90;;;;;;5050484;28;19917;-78
2024/01/01 05:48:52;;;;;;;;;;;7.00;99.90;;;;;;5049729;28;19921;-76
2024/01/01 05:51:18;;;;;;;;;;;7.00;99.90;;;;;;5049863;28;20242;-76
2024/01/01 05:53:43;;;;;;;;;;;7.00;99.90;;;;;;5055069;28;20156;-77
2024/01/01 05:56:09;;;;;;;;;;;7.00;99.90;;;;;;5044259;28;19929;-76
2024/01/01 05:58:35;;;;;;;;;;;7.00;99.90;;;;;;5047960;28;20011;-77
2024/01/01 06:01:00;;;;;;;;;;;7.00;99.90;;;;;;5045560;28;19943;-76
2024/01/01 06:03:26;;;;;;;;;;;7.00;99.90;;;;;;5044978;28;20364;-77
2024/01/01 06:05:52;;;;;;;;;;;7.00;99.90;;;;;;5048543;28;19917;-77
2024/01/01 06:08:18;;;;;;;;;;;7.00;99.90;;;;;;5043376;28;20396;-76
2024/01/01 06:10:44;;;;;;;;;;;7.20;99.90;;;;;;5038576;28;20019;-77
2024/01/01 06:13:09;;;;;;;;;;;7.00;99.90;;;;;;5037876;28;19934;-76
2024/01/01 06:15:35;;;;;;;;;;;7.00;99.90;;;;;;5044672;28;19974;-76
2024/01/01 06:18:00;;;;;;;;;;;7.00;99.90;;;;;;5040728;28;19920;-77
2024/01/01 06:20:26;;;;;;;;;;;7.10;99.90;;;;;;5047577;28;19925;-76
2024/01/01 06:22:51;;;;;;;;;;;7.00;99.90;;;;;;5049064;28;19927;-76
2024/01/01 06:25:17;;;;;;;;;;;7.10;99.90;;;;;;5049938;28;19997;-77
2024/01/01 06:27:43;;;;;;;;;;;7.10;99.90;;;;;;5050169;28;19955;-76
2024/01/01 06:30:09;;;;;;;;;;;7.10;99.90;;;;;;5047832;28;19924;-77
2024/01/01 06:32:34;;;;;;;;;;;7.10;99.90;;;;;;5048839;28;20374;-76
2024/01/01 06:35:00;;;;;;;;;;;7.10;99.90;;;;;;5051788;28;19920;-77
2024/01/01 06:37:26;;;;;;;;;;;7.10;99.90;;;;;;5053631;28;19917;-76
2024/01/01 06:39:51;;;;;;;;;;;7.10;99.90;;;;;;5069914;28;20544;-77
2024/01/01 06:42:17;;;;;;;;;;;7.10;99.90;;;;;;5070674;28;19973;-77
2024/01/01 06:44:45;;;;;;;;;;;7.10;99.90;;;;;;5050703;28;19927;-76
2024/01/01 06:47:11;;;;;;;;;;;7.10;99.90;;;;;;5042421;28;20008;-76
2024/01/01 06:49:36;;;;;;;;;;;7.10;99.90;;;;;;5053461;28;19959;-76
2024/01/01 06:52:03;;;;;;;;;;;7.10;99.90;;;;;;5051720;28;20033;-76
2024/01/01 06:54:29;;;;;;;;;;;7.10;99.90;;;;;;5050083;28;19921;-76
2024/01/01 06:56:54;;;;;;;;;;;7.20;99.90;;;;;;5051519;28;19955;-78
2024/01/01 06:59:26;;;;;;;;;;;7.10;99.90;;;;;;5051002;28;20005;-77
2024/01/01 07:01:51;;;;;;;;;;;7.20;99.90;;;;;;5050365;28;19920;-76
2024/01/01 07:04:18;;;;;;;;;;;7.20;99.90;;;;;;5042807;28;20174;-75
2024/01/01 07:06:44;;;;;;;;;;;7.20;99.90;;;;;;5065759;28;20310;-75
2024/01/01 07:09:10;;;;;;;;;;;7.20;99.90;;;;;;5046291;28;20020;-75
2024/01/01 07:11:36;;;;;;;;;;;7.20;99.90;;;;;;5048536;28;19982;-75
2024/01/01 07:14:01;;;;;;;;;;;7.20;99.90;;;;;;5051607;28;19920;-75
2024/01/01 07:16:27;;;;;;;;;;;7.20;99.90;;;;;;5054415;28;19927;-75
2024/01/01 07:18:53;;;;;;;;;;;7.20;99.90;;;;;;5053356;28;19924;-75
2024/01/01 07:21:18;;;;;;;;;;;7.30;99.90;;;;;;5050574;28;20015;-75
2024/01/01 07:23:44;;;;;;;;;;;7.30;99.90;;;;;;5053581;28;20026;-75
2024/01/01 07:26:09;;;;;;;;;;;7.30;99.90;;;;;;5051283;28;20050;-75
2024/01/01 07:28:35;;;;;;;;;;;7.30;99.90;;;;;;5052252;28;19986;-75
2024/01/01 07:31:01;;;;;;;;;;;7.20;99.90;;;;;;5052402;28;19920;-75
2024/01/01 07:33:26;;;;;;;;;;;7.30;99.90;;;;;;5051738;28;19927;-75
2024/01/01 07:35:52;;;;;;;;;;;7.30;99.90;;;;;;5052114;28;20326;-75
2024/01/01 07:38:17;;;;;;;;;;;7.30;99.90;;;;;;5051513;28;20356;-75
2024/01/01 07:40:43;;;;;;;;;;;7.30;99.90;;;;;;5051406;28;19921;-76
2024/01/01 07:43:09;;;;;;;;;;;7.30;99.90;;;;;;5042005;28;19929;-76
2024/01/01 07:45:35;;;;;;;;;;;7.20;99.90;;;;;;5042918;28;19924;-75
2024/01/01 07:48:01;;;;;;;;;;;7.40;99.90;;;;;;5050475;28;20341;-75
2024/01/01 07:50:26;;;;;;;;;;;7.20;99.90;;;;;;5051077;28;20322;-75
2024/01/01 07:52:52;;;;;;;;;;;7.10;99.90;;;;;;5047505;28;19920;-76
2024/01/01 07:55:18;;;;;;;;;;;7.10;99.90;;;;;;5046747;28;20275;-74
2024/01/01 07:57:46;;;;;;;;;;;7.10;99.90;;;;;;5048253;28;20280;-73
2024/01/01 08:00:12;;;;;;;;;;;7.10;99.90;;;;;;5066305;28;19920;-73
2024/01/01 08:02:38;;;;;;;;;;;7.00;99.90;;;;;;5049773;28;20376;-73
2024/01/01 08:05:03;;;;;;;;;;;6.90;99.90;;;;;;5043325;28;19916;-74
2024/01/01 08:07:29;;;;;;;;;;;6.90;99.90;;;;;;5047667;28;19924;-74
2024/01/01 08:09:54;;;;;;;;;;;7.00;99.90;;;;;;5043943;28;20399;-74
2024/01/01 08:12:20;;;;;;;;;;;7.00;99.90;;;;;;5032073;28;19975;-73
2024/01/01 08:14:45;;;;;;;;;;;6.80;99.90;;;;;;5049695;28;19964;-73
2024/01/01 08:17:11;;;;;;;;;;;6.70;99.90;;;;;;5050254;28;20291;-74
2024/01/01 08:19:36;;;;;;;;;;;6.70;99.90;;;;;;5050775;28;19920;-74
2024/01/01 08:22:02;;;;;;;;;;;6.90;99.90;;;;;;5037219;28;19921;-73
2024/01/01 08:24:28;;;;;;;;;;;6.70;99.90;;;;;;5044451;28;19925;-73
2024/01/01 08:26:53;;;;;;;;;;;5.70;99.90;;;;;;5050337;28;19959;-72
2024/01/01 08:29:19;;;;;;;;;;;6.70;99.90;;;;;;5068801;28;19931;-73
2024/01/01 08:31:44;;;;;;;;;;;6.70;99.90;;;;;;5052207;28;19961;-73
2024/01/01 08:34:10;;;;;;;;;;;6.70;99.90;;;;;;5049531;28;19943;-73
2024/01/01 08:36:35;;;;;;;;;;;6.60;99.90;;;;;;5050066;28;19929;-73
2024/01/01 08:39:01;;;;;;;;;;;6.60;99.90;;;;;;5051047;28;19921;-73
2024/01/01 08:41:26;;;;;;;;;;;6.60;99.90;;;;;;5050888;28;19920;-73
2024/01/01 08:43:56;;;;;;;;;;;6.70;99.90;;;;;;5049013;28;20279;-73
2024/01/01 08:46:26;;;;;;;;;;;6.70;99.90;;;;;;5050523;28;20368;-73
2024/01/01 08:48:52;;;;;;;;;;;6.70;99.90;;;;;;5051812;28;20384;-73
2024/01/01 08:51:18;;;;;;;;;;;6.70;99.90;;;;;;5036986;28;19999;-73
2024/01/01 08:53:43;;;;;;;;;;;6.70;99.90;;;;;;5048532;28;20011;-73
2024/01/01 08:56:09;;;;;;;;;;;6.70;99.90;;;;;;5049277;28;20035;-74
2024/01/01 08:58:35;;;;;;;;;;;6.80;99.90;;;;;;5047758;28;20383;-73
2024/01/01 09:01:00;;;;;;;;;;;6.80;99.90;;;;;;5066315;28;20368;-73
2024/01/01 09:03:27;;;;;;;;;;;6.80;99.90;;;;;;5049808;28;19921;-73
2024/01/01 09:05:54;;;;;;;;;;;6.80;99.90;;;;;;5045573;28;19981;-73
2024/01/01 09:08:20;;;;;;;;;;;6.80;99.90;;;;;;5047679;28;20339;-73
2024/01/01 09:10:45;;;;;;;;;;;6.80;99.90;;;;;;5045128;28;19971;-73
2024/01/01 09:13:11;;;;;;;;;;;6.80;99.90;;;;;;5038470;28;20458;-73
2024/01/01 09:15:37;;;;;;;;;;;6.80;99.90;;;;;;5050664;28;20371;-73
2024/01/01 09:18:02;;;;;;;;;;;6.80;99.90;;;;;;5051450;28;19920;-73
2024/01/01 09:20:28;;;;;;;;;;;6.80;99.90;;;;;;5050078;28;19974;-73
2024/01/01 09:22:55;;;;;;;;;;;6.80;99.90;;;;;;5049943;28;19931;-74
2024/01/01 09:25:20;;;;;;;;;;;6.80;99.90;;;;;;5050518;28;19932;-73
2024/01/01 09:27:47;;;;;;;;;;;6.90;99.90;;;;;;5050552;28;20382;-73
2024/01/01 09:30:13;;;;;;;;;;;6.80;99.90;;;;;;5049321;28;19927;-73
2024/01/01 09:32:38;;;;;;;;;;;6.70;99.90;;;;;;5050444;28;19928;-73
2024/01/01 09:35:04;;;;;;;;;;;6.70;99.90;;;;;;5050203;28;19921;-73
2024/01/01 09:37:30;;;;;;;;;;;6.70;99.90;;;;;;5051430;28;20003;-74
2024/01/01 09:39:55;;;;;;;;;;;6.70;99.90;;;;;;5045665;28;20364;-74
2024/01/01 09:42:21;;;;;;;;;;;6.70;99.90;;;;;;5044085;28;20279;-74
2024/01/01 09:44:49;;;;;;;;;;;6.70;99.90;;;;;;5046270;28;20098;-74
2024/01/01 09:47:15;;;;;;;;;;;6.60;99.90;;;;;;5049577;28;19928;-74
2024/01/01 09:49:41;;;;;;;;;;;6.60;99.90;;;;;;5048757;28;19936;-74
2024/01/01 09:52:07;;;;;;;;;;;6.60;99.90;;;;;;5046514;28;19920;-74
2024/01/01 09:54:34;;;;;;;;;;;6.60;99.90;;;;;;5061666;28;19925;-74
2024/01/01 09:56:59;;;;;;;;;;;6.60;99.90;;;;;;5048501;28;19996;-74
2024/01/01 09:59:37;;;;;;;;;;;6.60;99.90;;;;;;5047338;28;19967;-73
2024/01/01 10:02:04;;;;;;;;;;;6.60;99.90;;;;;;5068661;28;19974;-74
2024/01/01 10:04:30;;;;;;;;;;;6.70;99.90;;;;;;5049924;28;19924;-74
2024/01/01 10:06:55;;;;;;;;;;;6.70;99.90;;;;;;5042355;28;20280;-74
2024/01/01 10:09:21;;;;;;;;;;;6.70;99.90;;;;;;5043317;28;19971;-74
2024/01/01 10:11:46;;;;;;;;;;;6.70;99.90;;;;;;5039843;28;19970;-74
2024/01/01 10:14:12;;;;;;;;;;;6.70;99.90;;;;;;5047641;28;19927;-74
2024/01/01 10:16:38;;;;;;;;;;;6.70;99.90;;;;;;5051407;28;19925;-74
2024/01/01 10:19:05;;;;;;;;;;;6.80;99.90;;;;;;5049270;28;19920;-74
2024/01/01 10:21:35;;;;;;;;;;;6.80;99.90;;;;;;5054261;28;19975;-74
2024/01/01 10:24:17;;;;;;;;;;;6.80;99.90;;;;;;5054594;28;19916;-74
2024/01/01 10:26:43;;;;;;;;;;;6.80;99.90;;;;;;5053985;28;20360;-74
2024/01/01 10:29:12;;;;;;;;;;;7.00;99.90;;;;;;5051468;28;19924;-75
2024/01/01 10:31:48;;;;;;;;;;;6.90;99.90;;;;;;5051903;28;19921;-74
2024/01/01 10:34:18;;;;;;;;;;;6.90;99.90;;;;;;5040684;28;19999;-74
2024/01/01 10:36:44;;;;;;;;;;;7.00;99.90;;;;;;5067529;28;20019;-74
2024/01/01 10:39:13;;;;;;;;;;;7.00;99.90;;;;;;5033841;28;19929;-75
2024/01/01 10:41:39;;;;;;;;;;;7.10;99.90;;;;;;5036311;28;19978;-78
2024/01/01 10:44:09;;;;;;;;;;;7.40;99.90;;;;;;5055852;28;19927;-76
2024/01/01 10:46:44;;;;;;;;;;;7.60;99.90;;;;;;5049564;28;19917;-78
2024/01/01 10:49:12;;;;;;;;;;;8.20;99.90;;;;;;5050853;28;20294;-77
2024/01/01 10:51:41;;;;;;;;;;;8.30;99.90;;;;;;5034305;28;19924;-76
2024/01/01 10:54:26;;;;;;;;;;;8.20;99.90;;;;;;5033968;28;19966;-78
2024/01/01 10:57:10;;;;;;;;;;;8.20;99.90;;;;;;5035315;28;20252;-79
2024/01/01 10:59:43;;;;;;;;;;;8.10;99.90;;;;;;5053174;28;19927;-79
2024/01/01 11:02:09;;;;;;;;;;;8.00;99.90;;;;;;5051870;28;19928;-79
2024/01/01 11:04:35;;;;;;;;;;;8.00;99.90;;;;;;5050427;28;20339;-79
2024/01/01 11:07:02;;;;;;;;;;;8.00;99.90;;;;;;5051649;28;20350;-79
2024/01/01 11:09:27;;;;;;;;;;;8.00;99.90;;;;;;5051710;28;19921;-79
2024/01/01 11:11:53;;;;;;;;;;;8.00;99.90;;;;;;5043969;28;19985;-79
2024/01/01 11:14:25;;;;;;;;;;;7.90;99.90;;;;;;5044745;28;20375;-80
2024/01/01 11:16:52;;;;;;;;;;;7.90;99.90;;;;;;5047735;28;19975;-79
2024/01/01 11:19:36;;;;;;;;;;;8.00;99.90;;;;;;5048123;28;19921;-80
2024/01/01 11:22:18;;;;;;;;;;;7.90;99.90;;;;;;5048616;28;20280;-79
2024/01/01 11:24:45;;;;;;;;;;;7.90;99.90;;;;;;5050539;28;19978;-79
2024/01/01 11:27:31;;;;;;;;;;;8.10;99.90;;;;;;5049370;28;20011;-78
2024/01/01 11:30:07;;;;;;;;;;;7.90;99.90;;;;;;5045151;28;19966;-79
2024/01/01 11:32:35;;;;;;;;;;;7.90;99.90;;;;;;5040462;28;19916;-78
2024/01/01 11:35:05;;;;;;;;;;;7.90;99.90;;;;;;5048340;28;20581;-79
2024/01/01 11:37:31;;;;;;;;;;;7.90;99.90;;;;;;5049427;28;19916;-79
2024/01/01 11:40:00;;;;;;;;;;;7.90;99.90;;;;;;5046454;28;19927;-80
2024/01/01 11:42:26;;;;;;;;;;;7.90;99.90;;;;;;5049299;28;19921;-79
2024/01/01 11:45:08;;;;;;;;;;;7.90;99.90;;;;;;5049436;28;19920;-78
2024/01/01 11:47:34;;;;;;;;;;;7.90;99.90;;;;;;5049487;28;19921;-78
2024/01/01 11:50:01;;;;;;;;;;;7.90;99.90;;;;;;5040801;28;19928;-75
2024/01/01 11:52:26;;;;;;;;;;;7.90;99.90;;;;;;5047183;28;20403;-79
2024/01/01 11:54:52;;;;;;;;;;;7.90;99.90;;;;;;5045517;28;19921;-80
2024/01/01 11:57:17;;;;;;;;;;;7.80;99.90;;;;;;5047567;28;19920;-79
2024/01/01 11:59:43;;;;;;;;;;;7.80;99.90;;;;;;5043714;28;19921;-79
2024/01/01 12:02:10;;;;;;;;;;;7.90;99.90;;;;;;5047194;28;20027;-79
2024/01/01 12:04:36;;;;;;;;;;;7.80;99.90;;;;;;5047008;28;19948;-78
2024/01/01 12:07:02;;;;;;;;;;;7.80;99.90;;;;;;5048297;28;19976;-77
2024/01/01 12:09:28;;;;;;;;;;;7.90;99.90;;;;;;5038330;28;19920;-79
2024/01/01 12:12:01;;;;;;;;;;;8.00;99.90;;;;;;5041804;28;19920;-79
2024/01/01 12:14:27;;;;;;;;;;;7.90;99.90;;;;;;5043596;28;20021;-78
2024/01/01 12:16:54;;;;;;;;;;;8.00;99.90;;;;;;5065653;28;19987;-75
2024/01/01 12:19:22;;;;;;;;;;;8.00;99.90;;;;;;5045697;28;19929;-83
2024/01/01 12:21:49;;;;;;;;;;;8.00;99.90;;;;;;5037228;28;20317;-77
2024/01/01 12:24:16;;;;;;;;;;;7.20;99.90;;;;;;5044070;28;19920;-77
2024/01/01 12:26:43;;;;;;;;;;;8.10;99.90;;;;;;5037005;28;20396;-77
2024/01/01 12:29:12;;;;;;;;;;;8.30;99.90;;;;;;5043323;28;19928;-78
2024/01/01 12:31:39;;;;;;;;;;;8.30;99.90;;;;;;5032396;28;20368;-75
2024/01/01 12:34:05;;;;;;;;;;;8.50;99.90;;;;;;5046413;28;20260;-77
2024/01/01 12:36:30;;;;;;;;;;;8.40;99.90;;;;;;5048738;28;19930;-75
2024/01/01 12:38:56;;;;;;;;;;;8.40;99.90;;;;;;5046831;28;19927;-77
2024/01/01 12:41:21;;;;;;;;;;;8.70;99.90;;;;;;5045309;28;20147;-77
2024/01/01 12:43:47;;;;;;;;;;;8.60;99.90;;;;;;5043431;28;19987;-78
2024/01/01 12:46:13;;;;;;;;;;;8.60;99.90;;;;;;5050791;28;19924;-78
2024/01/01 12:48:45;;;;;;;;;;;8.60;99.90;;;;;;5049461;28;19927;-78
2024/01/01 12:51:13;;;;;;;;;;;8.70;99.90;;;;;;5048286;28;19920;-79
2024/01/01 12:53:39;;;;;;;;;;;8.70;99.90;;;;;;5045708;28;20014;-80
2024/01/01 12:56:05;;;;;;;;;;;8.70;99.90;;;;;;5046390;28;20003;-78
2024/01/01 12:58:30;;;;;;;;;;;8.70;99.90;;;;;;5047266;28;19920;-77
2024/01/01 13:00:56;;;;;;;;;;;8.70;99.90;;;;;;5047362;28;19921;-77
2024/01/01 13:03:22;;;;;;;;;;;8.70;99.90;;;;;;5050204;28;19998;-75
2024/01/01 13:05:47;;;;;;;;;;;8.70;99.90;;;;;;5046697;28;19952;-77
2024/01/01 13:08:13;;;;;;;;;;;8.80;99.90;;;;;;5047007;28;19920;-76
2024/01/01 13:10:39;;;;;;;;;;;8.70;99.90;;;;;;5038232;28;19994;-75
2024/01/01 13:13:05;;;;;;;;;;;8.70;99.90;;;;;;5059588;28;20183;-76
2024/01/01 13:15:33;;;;;;;;;;;8.60;99.90;;;;;;5041278;28;20319;-75
2024/01/01 13:17:59;;;;;;;;;;;8.60;99.90;;;;;;5044245;28;20642;-76
2024/01/01 13:20:24;;;;;;;;;;;8.60;99.90;;;;;;5047177;28;19985;-76
2024/01/01 13:22:50;;;;;;;;;;;8.50;99.90;;;;;;5046137;28;19920;-77
2024/01/01 13:25:16;;;;;;;;;;;8.60;99.90;;;;;;5047779;28;19928;-81
2024/01/01 13:27:42;;;;;;;;;;;8.40;99.90;;;;;;5044062;28;19921;-79
2024/01/01 13:30:07;;;;;;;;;;;8.30;99.90;;;;;;5049200;28;19926;-81
2024/01/01 13:32:33;;;;;;;;;;;8.30;99.90;;;;;;5045920;28;19920;-78
2024/01/01 13:34:59;;;;;;;;;;;8.20;99.90;;;;;;5050551;28;20022;-80
2024/01/01 13:37:24;;;;;;;;;;;8.20;99.90;;;;;;5048519;28;19921;-79
2024/01/01 13:39:50;;;;;;;;;;;8.20;99.90;;;;;;5045990;28;19921;-77
2024/01/01 13:42:15;;;;;;;;;;;8.10;99.90;;;;;;5044988;28;19925;-72
2024/01/01 13:44:41;;;;;;;;;;;8.00;99.90;;;;;;5047333;28;19920;-74
2024/01/01 13:47:06;;;;;;;;;;;8.00;99.90;;;;;;5045923;28;19924;-79
2024/01/01 13:49:35;;;;;;;;;;;8.10;99.90;;;;;;5046845;28;19977;-75
2024/01/01 13:52:01;;;;;;;;;;;8.00;99.90;;;;;;5046235;28;20019;-76
2024/01/01 13:54:26;;;;;;;;;;;8.00;99.90;;;;;;5047361;28;20046;-77
2024/01/01 13:56:52;;;;;;;;;;;8.00;99.90;;;;;;5048053;28;19927;-75
2024/01/01 13:59:17;;;;;;;;;;;8.10;99.90;;;;;;5048087;28;19920;-75
2024/01/01 14:01:43;;;;;;;;;;;8.10;99.90;;;;;;5049235;28;19928;-77
2024/01/01 14:04:08;;;;;;;;;;;8.10;99.90;;;;;;5053858;28;19929;-75
2024/01/01 14:06:34;;;;;;;;;;;8.10;99.90;;;;;;5048565;28;20019;-76
2024/01/01 14:09:01;;;;;;;;;;;8.10;99.90;;;;;;5050552;28;20007;-75
2024/01/01 14:11:27;;;;;;;;;;;8.10;99.90;;;;;;5044985;28;19936;-76
2024/01/01 14:13:53;;;;;;;;;;;8.10;99.90;;;;;;5046215;28;19962;-77
2024/01/01 14:16:18;;;;;;;;;;;8.10;99.90;;;;;;5046973;28;19924;-74
2024/01/01 14:18:44;;;;;;;;;;;8.10;99.90;;;;;;5053877;28;20004;-74
2024/01/01 14:21:10;;;;;;;;;;;8.10;99.90;;;;;;5047618;28;19920;-74
2024/01/01 14:23:35;;;;;;;;;;;8.10;99.90;;;;;;5050561;28;19920;-74
2024/01/01 14:26:01;;;;;;;;;;;8.10;99.90;;;;;;5043470;28;19930;-74